createdAt,value
2022-08-20T07:46:21.584Z,23.63
2022-08-20T07:48:50.229Z,24.33
2022-08-20T07:51:20.326Z,24.93
2022-08-20T07:53:48.782Z,25.30
2022-08-20T07:56:19.272Z,24.77
2022-08-20T07:58:50.334Z,27.10
2022-08-20T08:01:20.178Z,25.80
2022-08-20T08:03:49.820Z,26.20
2022-08-20T08:06:19.679Z,26.00
2022-08-20T08:08:55.845Z,28.60
2022-08-20T08:11:22.843Z,26.27
2022-08-20T08:13:49.573Z,26.70
2022-08-20T08:16:16.325Z,27.03
2022-08-20T08:18:50.376Z,28.90
2022-08-20T08:21:18.430Z,27.10
2022-08-20T08:23:45.388Z,28.40
2022-08-20T08:26:17.812Z,26.70
2022-08-20T08:28:46.182Z,28.10
2022-08-20T08:31:13.297Z,28.27
2022-08-20T08:33:40.661Z,27.23
2022-08-20T08:36:13.530Z,27.87
2022-08-20T08:38:44.210Z,27.00
2022-08-20T08:41:33.975Z,28.50
2022-08-20T08:44:23.633Z,27.37
2022-08-20T08:47:19.147Z,28.83
2022-08-20T08:49:47.900Z,27.97
2022-08-20T08:52:22.248Z,28.90
2022-08-20T08:54:53.998Z,27.63
2022-08-20T08:57:20.644Z,26.63
2022-08-20T09:00:04.848Z,26.17
2022-08-20T09:02:35.241Z,26.97
2022-08-20T09:05:09.522Z,28.40
2022-08-20T09:07:37.863Z,26.47
2022-08-20T09:10:06.606Z,26.90
2022-08-20T09:12:33.244Z,26.13
2022-08-20T09:14:59.831Z,25.97
2022-08-20T09:17:26.420Z,26.30
2022-08-20T09:19:53.031Z,28.13
2022-08-20T09:22:25.530Z,26.87
2022-08-20T09:24:52.529Z,24.60
2022-08-20T09:27:19.413Z,25.13
2022-08-20T09:29:46.577Z,25.70
2022-08-20T09:32:23.901Z,23.67
2022-08-20T09:34:56.634Z,24.97
2022-08-20T09:37:25.802Z,23.93
2022-08-20T09:39:52.667Z,22.13
2022-08-20T09:42:28.587Z,21.53
2022-08-20T09:44:55.662Z,23.10
2022-08-20T09:47:22.586Z,20.73
2022-08-20T09:49:49.431Z,22.10
2022-08-20T09:52:29.466Z,20.07
2022-08-20T09:55:02.576Z,19.63
2022-08-20T09:57:31.435Z,21.43
2022-08-20T10:00:08.716Z,19.63
2022-08-20T10:02:35.862Z,20.07
2022-08-20T10:05:02.627Z,19.70
2022-08-20T10:07:29.563Z,19.50
2022-08-20T10:09:56.327Z,18.70
2022-08-20T10:12:23.976Z,17.43
2022-08-20T10:14:50.600Z,18.17
2022-08-20T10:17:17.271Z,17.43
2022-08-20T10:19:43.877Z,17.73
2022-08-20T10:22:10.462Z,17.57
2022-08-20T10:24:37.051Z,17.67
2022-08-20T10:27:04.007Z,16.10
2022-08-20T10:29:31.544Z,16.87
2022-08-20T10:32:09.620Z,15.00
2022-08-20T10:34:36.220Z,15.00
2022-08-20T10:37:02.840Z,14.67
2022-08-20T10:39:29.432Z,14.70
2022-08-20T10:41:58.263Z,15.00
2022-08-20T10:44:24.868Z,14.87
2022-08-20T10:46:51.900Z,14.07
2022-08-20T10:49:23.790Z,14.27
2022-08-20T10:51:50.421Z,13.57
2022-08-20T10:54:17.063Z,12.93
2022-08-20T10:56:43.642Z,12.07
2022-08-20T10:59:10.288Z,11.10
2022-08-20T11:01:37.058Z,10.17
2022-08-20T11:04:04.733Z,9.93
2022-08-20T11:06:31.408Z,9.50
2022-08-20T11:08:58.018Z,10.47
2022-08-20T11:11:24.755Z,9.77
2022-08-20T11:13:51.378Z,10.37
2022-08-20T11:16:17.996Z,9.87
2022-08-20T11:18:47.665Z,9.70
2022-08-20T11:21:14.872Z,9.47
2022-08-20T11:23:41.503Z,8.90
2022-08-20T11:26:08.525Z,8.30
2022-08-20T11:28:35.226Z,7.93
2022-08-20T11:31:02.150Z,7.57
2022-08-20T11:33:28.946Z,7.83
2022-08-20T11:35:55.696Z,7.27
2022-08-20T11:38:22.300Z,7.43
2022-08-20T11:40:48.902Z,7.17
2022-08-20T11:43:17.445Z,7.00
2022-08-20T11:45:47.229Z,7.13
2022-08-20T11:48:14.050Z,6.67
2022-08-20T11:50:40.888Z,6.93
2022-08-20T11:53:08.081Z,6.90
2022-08-20T11:55:35.354Z,6.60
2022-08-20T11:58:02.083Z,6.27
2022-08-20T12:00:32.754Z,5.50
2022-08-20T12:03:01.947Z,5.43
2022-08-20T12:05:29.932Z,5.90
2022-08-20T12:07:57.583Z,5.10
2022-08-20T12:10:26.311Z,6.07
2022-08-20T12:12:53.015Z,5.87
2022-08-20T12:15:20.340Z,5.17
2022-08-20T12:17:47.049Z,4.63
2022-08-20T12:20:15.518Z,4.70
2022-08-20T12:22:43.770Z,4.90
2022-08-20T12:25:12.059Z,4.83
2022-08-20T12:27:39.411Z,4.50
2022-08-20T12:30:10.028Z,5.00
2022-08-20T12:32:37.221Z,4.70
2022-08-20T12:35:05.695Z,4.67
2022-08-20T12:37:32.541Z,4.37
2022-08-20T12:40:00.762Z,5.00
2022-08-20T12:42:30.336Z,4.73
2022-08-20T12:44:58.066Z,4.33
2022-08-20T12:47:27.834Z,5.13
2022-08-20T12:50:00.754Z,4.97
2022-08-20T12:52:28.919Z,4.70
2022-08-20T12:54:57.016Z,4.60
2022-08-20T12:57:28.768Z,5.73
2022-08-20T13:00:00.621Z,5.20
2022-08-20T13:02:30.602Z,4.93
2022-08-20T13:05:00.117Z,5.50
2022-08-20T13:07:29.243Z,5.17
2022-08-20T13:09:55.830Z,5.80
2022-08-20T21:06:35.702Z,4.50
2022-08-20T21:09:02.546Z,3.63
2022-08-20T21:11:29.404Z,3.67
2022-08-20T21:13:56.083Z,4.13
2022-08-20T21:16:22.703Z,4.17
2022-08-20T21:18:49.324Z,3.57
2022-08-20T21:21:16.128Z,4.20
2022-08-20T21:23:42.796Z,4.33
2022-08-20T21:26:09.759Z,4.60
2022-08-20T21:28:36.477Z,4.13
2022-08-20T21:31:03.348Z,4.23
2022-08-20T21:33:30.028Z,4.53
2022-08-20T21:35:56.912Z,4.67
2022-08-20T21:38:23.937Z,4.73
2022-08-20T21:40:51.109Z,4.27
2022-08-20T21:43:18.820Z,4.20
2022-08-20T21:45:45.614Z,5.13
2022-08-20T21:48:16.241Z,4.60
2022-08-20T21:50:43.560Z,4.70
2022-08-20T21:53:12.743Z,4.70
2022-08-20T21:55:40.789Z,5.07
2022-08-20T21:58:08.422Z,6.20
2022-08-20T22:00:46.993Z,5.50
2022-08-20T22:03:15.212Z,5.67
2022-08-20T22:05:43.923Z,6.27
2022-08-20T22:08:10.812Z,5.63
2022-08-20T22:10:37.878Z,6.10
2022-08-20T22:16:45.497Z,5.57
2022-08-20T22:19:15.984Z,5.77
2022-08-20T22:21:43.318Z,5.00
2022-08-20T22:24:11.007Z,5.43
2022-08-20T22:26:40.250Z,5.87
2022-08-20T22:29:10.048Z,5.00
2022-08-20T22:31:39.381Z,4.93
2022-08-20T22:34:06.849Z,5.53
2022-08-20T22:36:33.823Z,5.17
2022-08-20T22:39:00.512Z,5.13
2022-08-20T22:41:27.977Z,6.00
2022-08-20T22:43:56.919Z,5.80
2022-08-20T22:46:26.496Z,4.50
2022-08-20T22:48:53.941Z,5.27
2022-08-20T22:51:29.180Z,5.30
2022-08-20T22:53:57.232Z,4.73
2022-08-20T22:56:23.883Z,4.50
2022-08-20T22:58:51.006Z,4.80
2022-08-20T23:01:20.038Z,4.50
2022-08-20T23:03:46.859Z,4.43
2022-08-20T23:06:13.774Z,5.00
2022-08-20T23:08:41.815Z,4.90
2022-08-20T23:11:09.166Z,4.73
2022-08-20T23:13:35.894Z,5.00
2022-08-20T23:16:03.248Z,4.57
2022-08-20T23:18:30.176Z,4.97
2022-08-20T23:20:59.009Z,4.30
2022-08-20T23:23:27.104Z,4.00
2022-08-20T23:25:54.618Z,4.57
2022-08-20T23:28:24.370Z,4.60
2022-08-20T23:30:51.385Z,4.50
2022-08-20T23:33:18.458Z,4.40
2022-08-20T23:35:45.896Z,4.87
2022-08-20T23:38:12.802Z,4.63
2022-08-20T23:40:40.014Z,5.10
2022-08-20T23:43:06.901Z,5.37
